Time;durP1;ratioP1;P1;durP2;ratioP2;P2;SDS_P1;SDS_P2;PMS_P1;PMS_P2;Temp;Humidity;BMP_temperature;BMP_pressure;BME280_temperature;BME280_humidity;BME280_pressure;Samples;Min_cycle;Max_cycle;Signal;HPM_P1;HPM_P2
2022/11/13 00:03:29;;;;;;;35.72;18.27;;;;;;;8.78;95.21;100881.81;8442835;28;20501;-74
2022/11/13 00:07:29;;;;;;;42.63;17.75;;;;;;;8.76;95.21;100873.22;8390463;28;20139;-75
2022/11/13 00:11:31;;;;;;;34.83;17.73;;;;;;;8.78;95.25;100881.00;8426339;28;20046;-74
2022/11/13 00:15:32;;;;;;;31.20;17.23;;;;;;;8.77;95.24;100872.16;8423775;28;20071;-74
2022/11/13 00:19:33;;;;;;;43.33;19.67;;;;;;;8.64;95.66;100875.22;8424424;28;20043;-74
2022/11/13 00:23:35;;;;;;;36.65;19.15;;;;;;;8.64;95.69;100886.00;8424750;28;20071;-74
2022/11/13 00:27:36;;;;;;;36.00;19.75;;;;;;;8.64;95.64;100886.00;8371719;28;20105;-75
2022/11/13 00:31:37;;;;;;;33.20;19.50;;;;;;;8.57;95.66;100890.75;8423897;28;20052;-73
2022/11/13 00:35:38;;;;;;;40.60;21.52;;;;;;;8.54;96.01;100880.50;8387271;28;20063;-74
2022/11/13 00:39:39;;;;;;;42.50;22.38;;;;;;;8.56;95.99;100877.56;8423400;28;20109;-74
2022/11/13 00:43:40;;;;;;;37.47;20.40;;;;;;;8.57;95.95;100874.59;8423661;28;20456;-74
2022/11/13 00:47:41;;;;;;;47.25;23.27;;;;;;;8.47;96.34;100869.09;8423656;28;20396;-74
2022/11/13 00:51:42;;;;;;;44.22;23.02;;;;;;;8.39;96.80;100872.25;8386743;28;20411;-74
2022/11/13 00:55:44;;;;;;;49.25;23.90;;;;;;;8.33;96.97;100865.97;8386245;28;20083;-74
2022/11/13 00:59:45;;;;;;;52.25;24.20;;;;;;;8.33;97.22;100862.47;8421367;28;20056;-74
2022/11/13 01:03:46;;;;;;;50.45;26.08;;;;;;;8.36;96.90;100861.97;8425758;28;20471;-74
2022/11/13 01:07:47;;;;;;;47.30;25.33;;;;;;;8.34;96.89;100869.50;8430384;28;20047;-74
2022/11/13 01:11:47;;;;;;;52.03;24.92;;;;;;;8.27;97.19;100852.69;8358843;28;20053;-73
2022/11/13 01:15:49;;;;;;;54.90;26.83;;;;;;;8.23;97.38;100851.56;8358453;28;20060;-74
2022/11/13 01:19:50;;;;;;;51.47;25.90;;;;;;;8.20;97.41;100846.66;8359911;28;20072;-74
2022/11/13 01:23:52;;;;;;;49.63;26.67;;;;;;;8.16;97.46;100840.16;8342177;28;20265;-75
2022/11/13 01:27:53;;;;;;;50.53;26.00;;;;;;;8.19;97.41;100839.69;8357814;28;20057;-74
2022/11/13 01:31:54;;;;;;;61.90;27.40;;;;;;;8.19;97.19;100835.09;8308396;28;20048;-74
2022/11/13 01:36:06;;;;;;;54.75;27.77;;;;;;;8.07;97.71;100829.84;8363600;28;20060;-74
2022/11/13 01:40:09;;;;;;;54.53;27.58;;;;;;;8.14;97.43;100821.59;8370746;28;20377;-74
2022/11/13 01:44:13;;;;;;;56.15;28.15;;;;;;;8.13;97.54;100824.53;8414700;28;20486;-73
2022/11/13 01:48:14;;;;;;;51.40;26.50;;;;;;;8.06;97.43;100814.75;8375174;28;20052;-73
2022/11/13 01:52:24;;;;;;;47.50;24.60;;;;;;;8.02;97.68;100810.94;8410188;28;20131;-74
2022/11/13 01:56:25;;;;;;;45.90;23.85;;;;;;;7.93;97.43;100804.34;8428548;28;20448;-74
2022/11/13 02:00:26;;;;;;;50.75;25.75;;;;;;;7.95;97.28;100804.94;8431107;28;20075;-74
2022/11/13 02:04:27;;;;;;;52.67;25.13;;;;;;;7.83;97.36;100801.53;8428887;28;20554;-74
2022/11/13 02:08:28;;;;;;;57.63;27.00;;;;;;;7.66;97.96;100808.03;8429038;28;20512;-74
2022/11/13 02:12:40;;;;;;;57.75;28.50;;;;;;;7.69;97.60;100805.66;8410218;28;20498;-74
2022/11/13 02:16:43;;;;;;;62.08;30.77;;;;;;;7.59;98.05;100797.47;8407840;28;20050;-74
2022/11/13 02:20:51;;;;;;;63.30;32.08;;;;;;;7.61;97.90;100806.09;8427059;28;20081;-74
2022/11/13 02:24:53;;;;;;;69.43;33.73;;;;;;;7.65;97.50;100796.47;8426660;28;20048;-74
2022/11/13 02:28:54;;;;;;;63.95;33.40;;;;;;;7.70;97.52;100809.97;8408340;28;20282;-74
2022/11/13 02:32:56;;;;;;;66.65;33.33;;;;;;;7.68;97.29;100801.34;8428106;28;20051;-74
2022/11/13 02:36:57;;;;;;;71.50;33.35;;;;;;;7.68;97.35;100789.75;8426747;28;20044;-73
2022/11/13 02:40:58;;;;;;;71.00;33.47;;;;;;;7.68;97.24;100790.59;8427691;28;20051;-74
2022/11/13 02:45:00;;;;;;;75.88;33.47;;;;;;;7.70;97.16;100783.09;8427171;28;20048;-74
2022/11/13 02:49:01;;;;;;;70.43;32.28;;;;;;;7.65;97.16;100777.66;8430921;28;20050;-74
2022/11/13 02:53:03;;;;;;;64.90;32.70;;;;;;;7.59;97.25;100775.94;8426700;28;20047;-76
2022/11/13 02:57:04;;;;;;;64.18;32.63;;;;;;;7.63;97.12;100777.88;8373592;28;20058;-74
2022/11/13 03:01:05;;;;;;;64.45;32.55;;;;;;;7.71;96.49;100773.97;8428084;28;20508;-74
2022/11/13 03:05:06;;;;;;;60.88;31.73;;;;;;;7.65;96.56;100777.66;8390235;28;20056;-74
2022/11/13 03:09:07;;;;;;;62.88;31.30;;;;;;;7.69;96.48;100781.47;8426297;28;20043;-74
2022/11/13 03:13:08;;;;;;;62.45;31.25;;;;;;;7.69;96.59;100776.09;8426275;28;20044;-74
2022/11/13 03:17:10;;;;;;;58.80;29.10;;;;;;;7.61;96.42;100768.47;8424102;28;20116;-74
2022/11/13 03:21:13;;;;;;;65.40;29.20;;;;;;;7.64;96.20;100762.56;8373168;28;20142;-73
2022/11/13 03:25:14;;;;;;;61.80;27.92;;;;;;;7.59;96.16;100759.81;8362393;28;20340;-74
2022/11/13 03:29:15;;;;;;;61.03;29.75;;;;;;;7.53;96.48;100755.44;8425438;28;20370;-74
2022/11/13 03:33:16;;;;;;;58.63;27.83;;;;;;;7.60;96.43;100745.31;8426199;28;20120;-74
2022/11/13 03:37:17;;;;;;;57.22;28.50;;;;;;;7.64;96.06;100751.81;8424845;28;20040;-74
2022/11/13 03:41:18;;;;;;;59.13;27.00;;;;;;;7.68;95.98;100752.94;8425271;28;20522;-74
2022/11/13 03:45:19;;;;;;;57.70;28.52;;;;;;;7.72;95.91;100743.31;8425479;28;20050;-73
2022/11/13 03:49:20;;;;;;;66.45;29.00;;;;;;;7.70;95.92;100745.44;8425709;28;20125;-74
2022/11/13 03:53:21;;;;;;;66.38;29.10;;;;;;;7.73;95.59;100739.56;8424897;28;20052;-74
2022/11/13 03:57:22;;;;;;;63.00;29.80;;;;;;;7.73;95.39;100739.56;8424872;28;20040;-74
2022/11/13 04:01:23;;;;;;;63.08;29.67;;;;;;;7.72;95.41;100748.69;8426491;28;20456;-73
2022/11/13 04:05:24;;;;;;;71.35;31.23;;;;;;;7.69;95.32;100738.44;8389227;28;20052;-74
2022/11/13 04:09:24;;;;;;;65.82;32.58;;;;;;;7.68;95.67;100736.81;8425128;28;20401;-74
2022/11/13 04:13:26;;;;;;;66.97;30.73;;;;;;;7.71;95.47;100747.06;8424032;28;20044;-73
2022/11/13 04:17:27;;;;;;;72.70;32.55;;;;;;;7.69;95.67;100738.44;8388205;28;20040;-74
2022/11/13 04:21:28;;;;;;;69.72;31.92;;;;;;;7.69;95.54;100745.69;8426082;28;20101;-74
2022/11/13 04:25:28;;;;;;;69.15;32.35;;;;;;;7.69;95.53;100738.44;8424085;28;20138;-74
2022/11/13 04:29:30;;;;;;;71.35;33.95;;;;;;;7.67;95.60;100740.56;8405866;28;20052;-74
2022/11/13 04:33:30;;;;;;;80.95;35.20;;;;;;;7.61;96.09;100746.94;8424740;28;20168;-75
2022/11/13 04:37:31;;;;;;;79.10;35.50;;;;;;;7.57;96.24;100743.09;8422809;28;20116;-74
2022/11/13 04:45:52;;;;;;;71.60;33.78;;;;;;;7.54;96.42;100746.31;8423873;28;20063;-74
2022/11/13 04:49:52;;;;;;;78.78;36.88;;;;;;;7.49;96.89;100743.56;8371009;28;20044;-74
2022/11/13 04:53:54;;;;;;;78.85;36.00;;;;;;;7.51;96.53;100746.78;8422267;28;20087;-74
2022/11/13 04:57:55;;;;;;;77.82;35.97;;;;;;;7.53;96.88;100750.06;8370237;28;20411;-74
2022/11/13 05:01:56;;;;;;;84.07;36.40;;;;;;;7.46;96.92;100754.78;8424122;28;20036;-74
2022/11/13 05:06:02;;;;;;;79.97;37.10;;;;;;;7.40;97.41;100750.44;8423699;28;20108;-74
2022/11/13 05:10:04;;;;;;;76.72;36.78;;;;;;;7.41;97.26;100752.03;8424337;28;20040;-74
2022/11/13 05:14:05;;;;;;;77.20;36.85;;;;;;;7.38;97.32;100749.84;8386025;28;20060;-74
2022/11/13 05:18:06;;;;;;;82.28;36.35;;;;;;;7.44;97.31;100740.81;8422907;28;20052;-74
2022/11/13 05:22:08;;;;;;;78.82;36.42;;;;;;;7.49;96.96;100759.69;8422410;28;20044;-73
2022/11/13 05:26:10;;;;;;;78.45;38.03;;;;;;;7.45;97.17;100753.19;8423672;28;20056;-74
2022/11/13 05:30:11;;;;;;;88.13;40.28;;;;;;;7.40;97.64;100750.44;8422746;28;20036;-74
2022/11/13 05:34:13;;;;;;;76.35;37.42;;;;;;;7.46;97.76;100754.78;8423479;28;20066;-74
2022/11/13 05:38:14;;;;;;;83.88;38.83;;;;;;;7.42;97.84;100753.66;8404137;28;20048;-74
2022/11/13 05:42:15;;;;;;;75.25;36.85;;;;;;;7.44;97.80;100746.19;8427024;28;20039;-74
2022/11/13 05:46:18;;;;;;;83.57;37.53;;;;;;;7.45;97.69;100745.13;8425777;28;20194;-74
2022/11/13 05:50:19;;;;;;;81.03;37.33;;;;;;;7.47;97.65;100740.28;8391640;28;20177;-74
2022/11/13 05:54:20;;;;;;;73.53;35.67;;;;;;;7.50;97.45;100740.63;8376904;28;20471;-74
2022/11/13 05:58:21;;;;;;;77.85;36.15;;;;;;;7.53;97.24;100733.91;8429220;28;20048;-73
2022/11/13 06:02:22;;;;;;;77.50;36.17;;;;;;;7.55;97.30;100737.19;8428596;28;20052;-74
2022/11/13 06:06:25;;;;;;;75.63;36.05;;;;;;;7.55;97.26;100732.63;8428276;28;21844;-74
2022/11/13 06:10:25;;;;;;;80.07;36.70;;;;;;;7.53;97.25;100723.16;8426909;28;20055;-74
2022/11/13 06:14:26;;;;;;;76.75;35.95;;;;;;;7.48;97.74;100725.78;8426359;28;20040;-73
2022/11/13 06:18:27;;;;;;;78.53;36.17;;;;;;;7.48;97.91;100725.78;8428871;28;20040;-74
2022/11/13 06:22:29;;;;;;;74.63;35.58;;;;;;;7.40;98.24;100723.53;8426151;28;20059;-74
2022/11/13 06:26:32;;;;;;;71.00;35.08;;;;;;;7.42;98.42;100726.78;8427819;28;20052;-75
2022/11/13 06:30:33;;;;;;;79.28;37.20;;;;;;;7.41;98.38;100720.59;8425392;28;20077;-74
2022/11/13 06:34:34;;;;;;;72.97;35.72;;;;;;;7.34;98.88;100724.53;8426658;28;20044;-74
2022/11/13 06:38:37;;;;;;;72.80;34.03;;;;;;;7.35;98.94;100731.53;8426094;28;20028;-74
2022/11/13 06:42:37;;;;;;;59.58;30.52;;;;;;;7.41;98.64;100728.66;8427473;28;20058;-74
2022/11/13 06:46:39;;;;;;;60.03;31.60;;;;;;;7.41;98.29;100734.03;8425648;28;20142;-74
2022/11/13 06:50:39;;;;;;;60.17;31.48;;;;;;;7.45;98.02;100731.69;8415542;28;20538;-74
2022/11/13 06:54:40;;;;;;;55.05;26.58;;;;;;;7.48;97.71;100728.47;8420057;28;20036;-74
2022/11/13 06:58:42;;;;;;;48.72;25.95;;;;;;;7.46;97.31;100722.53;8416969;28;20050;-74
2022/11/13 07:02:43;;;;;;;46.97;25.30;;;;;;;7.55;96.54;100715.69;8423930;28;20067;-73
2022/11/13 07:06:44;;;;;;;48.50;25.63;;;;;;;7.66;96.25;100717.44;8389291;28;20068;-73
2022/11/13 07:10:53;;;;;;;44.45;24.58;;;;;;;7.70;95.76;100718.56;8425110;28;20044;-74
2022/11/13 07:14:54;;;;;;;50.75;26.65;;;;;;;7.78;95.26;100699.28;8424957;28;20477;-74
2022/11/13 07:18:55;;;;;;;49.30;26.73;;;;;;;7.79;94.94;100706.28;8424383;28;20040;-74
2022/11/13 07:22:57;;;;;;;56.45;27.67;;;;;;;7.87;94.94;100696.97;8421959;28;20048;-74
2022/11/13 07:26:58;;;;;;;56.80;28.63;;;;;;;7.98;94.49;100699.50;8422138;28;20426;-74
2022/11/13 07:31:00;;;;;;;58.28;30.08;;;;;;;7.98;94.23;100699.50;8422229;28;20053;-74
2022/11/13 07:35:01;;;;;;;57.30;29.45;;;;;;;7.90;93.99;100701.84;8413565;28;20054;-76
2022/11/13 07:39:02;;;;;;;56.97;28.88;;;;;;;7.94;94.16;100698.38;8415386;28;20036;-73
2022/11/13 07:43:03;;;;;;;64.88;33.47;;;;;;;8.00;94.11;100692.00;8418712;28;20047;-74
2022/11/13 07:47:04;;;;;;;64.75;33.55;;;;;;;8.09;94.44;100688.88;8418323;28;20139;-74
2022/11/13 07:51:05;;;;;;;67.72;33.03;;;;;;;8.09;94.53;100689.66;8362552;28;20045;-73
2022/11/13 07:55:06;;;;;;;67.63;32.78;;;;;;;8.11;94.35;100694.78;8422654;28;20136;-74
2022/11/13 07:59:07;;;;;;;60.67;31.05;;;;;;;7.93;93.09;100696.75;8424760;28;20287;-73
2022/11/13 08:03:11;;;;;;;60.95;32.75;;;;;;;7.92;93.13;100695.16;8402291;28;20040;-73
2022/11/13 08:07:12;;;;;;;76.07;35.95;;;;;;;8.01;93.29;100704.38;8422050;28;20074;-74
2022/11/13 08:11:13;;;;;;;69.00;34.78;;;;;;;8.02;93.46;100711.41;8424968;28;20177;-73
2022/11/13 08:15:15;;;;;;;66.80;34.47;;;;;;;7.90;93.69;100718.78;8424535;28;20039;-74
2022/11/13 08:19:18;;;;;;;80.43;41.58;;;;;;;7.88;93.78;100714.72;8353412;28;20113;-74
2022/11/13 08:23:19;;;;;;;69.43;35.72;;;;;;;8.00;93.05;100712.69;8422628;28;20108;-73
2022/11/13 08:27:21;;;;;;;66.47;34.70;;;;;;;7.87;93.28;100718.50;8423500;28;20570;-73
2022/11/13 08:31:22;;;;;;;67.85;37.45;;;;;;;7.77;93.34;100707.63;8423938;28;20090;-74
2022/11/13 08:35:24;;;;;;;64.20;34.47;;;;;;;7.75;93.66;100709.72;8422653;28;20308;-73
2022/11/13 08:39:25;;;;;;;70.75;37.63;;;;;;;7.73;93.44;100711.84;8424723;28;20437;-73
2022/11/13 08:43:26;;;;;;;60.67;33.75;;;;;;;7.75;93.60;100713.22;8371591;28;20143;-73
2022/11/13 08:47:28;;;;;;;68.78;35.38;;;;;;;7.79;93.33;100711.66;8425974;28;20059;-74
2022/11/13 08:51:28;;;;;;;70.32;37.47;;;;;;;7.95;93.27;100710.78;8372788;28;20082;-74
2022/11/13 08:55:31;;;;;;;70.45;37.88;;;;;;;7.93;92.82;100712.91;8427222;28;20055;-73
2022/11/13 08:59:32;;;;;;;80.88;39.78;;;;;;;8.07;92.48;100714.16;8424651;28;20522;-76
2022/11/13 09:03:35;;;;;;;75.53;38.72;;;;;;;8.13;92.23;100711.50;8427498;28;20040;-74
2022/11/13 09:07:35;;;;;;;82.03;40.53;;;;;;;8.17;92.17;100718.00;8426238;28;20075;-73
2022/11/13 09:11:37;;;;;;;87.72;40.80;;;;;;;8.33;91.75;100711.72;8425972;28;20036;-73
2022/11/13 09:15:38;;;;;;;83.75;42.80;;;;;;;8.19;92.12;100718.56;8429905;28;20256;-74
2022/11/13 09:19:39;;;;;;;84.32;41.60;;;;;;;8.19;91.78;100715.88;8423729;28;20113;-74
2022/11/13 09:23:40;;;;;;;100.40;46.30;;;;;;;8.21;91.56;100725.31;8410337;28;20048;-73
2022/11/13 09:27:41;;;;;;;96.72;45.88;;;;;;;8.25;91.37;100726.41;8431259;28;20048;-73
2022/11/13 09:31:42;;;;;;;86.07;40.50;;;;;;;8.25;91.34;100731.81;8376681;28;20054;-73
2022/11/13 09:35:43;;;;;;;82.90;40.50;;;;;;;8.13;91.40;100730.34;8364944;28;20040;-73
2022/11/13 09:39:44;;;;;;;81.40;40.28;;;;;;;8.20;91.29;100729.06;8412825;28;20037;-73
2022/11/13 09:43:53;;;;;;;93.72;46.00;;;;;;;8.41;91.03;100719.34;8376736;28;20481;-73
2022/11/13 09:47:55;;;;;;;91.15;41.05;;;;;;;8.45;90.69;100720.47;8393363;28;20089;-73
2022/11/13 09:52:00;;;;;;;95.85;45.00;;;;;;;8.46;90.79;100716.69;8393463;28;20039;-74
2022/11/13 09:56:27;;;;;;;87.90;40.13;;;;;;;8.57;90.05;100715.72;8397735;28;20048;-74
2022/11/13 10:00:28;;;;;;;88.25;40.63;;;;;;;8.67;89.46;100713.09;8255675;28;20051;-73
2022/11/13 10:04:44;;;;;;;71.80;37.63;;;;;;;8.77;89.22;100713.22;8243124;28;20054;-75
2022/11/13 10:08:53;;;;;;;82.78;39.63;;;;;;;8.84;88.75;100700.31;8266985;28;20054;-73
2022/11/13 10:12:55;;;;;;;67.45;36.50;;;;;;;8.76;88.43;100700.00;8265648;28;20133;-74
2022/11/13 10:17:27;;;;;;;77.53;36.92;;;;;;;8.72;88.41;100694.31;8268032;28;20046;-74
2022/11/13 10:21:36;;;;;;;70.88;37.28;;;;;;;8.69;88.48;100702.91;8265312;28;20045;-74
2022/11/13 10:25:42;;;;;;;75.68;37.95;;;;;;;8.79;87.93;100692.19;8203008;28;20046;-74
2022/11/13 10:29:44;;;;;;;77.72;39.45;;;;;;;8.85;87.78;100687.66;8265630;28;20042;-75
2022/11/13 10:33:45;;;;;;;71.05;36.30;;;;;;;8.89;87.71;100684.19;8273023;28;20042;-73
2022/11/13 10:38:04;;;;;;;72.72;36.65;;;;;;;8.82;88.22;100672.03;8371916;28;20039;-73
2022/11/13 10:42:20;;;;;;;77.47;37.72;;;;;;;8.92;88.24;100663.19;8415252;28;20044;-74
2022/11/13 10:46:28;;;;;;;79.22;38.35;;;;;;;8.81;88.39;100657.75;8417280;28;20050;-72
2022/11/13 10:50:31;;;;;;;75.38;36.58;;;;;;;8.71;88.52;100676.53;8375109;28;20420;-74
2022/11/13 10:54:32;;;;;;;76.88;37.60;;;;;;;8.59;88.69;100662.41;8390699;28;20066;-73
2022/11/13 10:58:35;;;;;;;75.25;36.72;;;;;;;8.53;89.06;100658.06;8390403;28;20045;-73
2022/11/13 11:02:36;;;;;;;81.80;39.15;;;;;;;8.60;89.20;100647.91;8368587;28;20052;-74
2022/11/13 11:06:39;;;;;;;83.28;40.50;;;;;;;8.64;89.29;100649.00;8418873;28;20040;-74
2022/11/13 11:12:14;;;;;;;86.10;42.30;;;;;;;8.76;89.14;100636.16;8404535;28;20170;-74
2022/11/13 11:15:15;;;;;;;83.32;38.33;;;;;;;8.92;88.70;100638.94;8381774;28;20063;-75
2022/11/13 11:19:17;;;;;;;92.95;41.60;;;;;;;8.97;88.56;100644.38;8389271;28;20055;-75
2022/11/13 11:23:26;;;;;;;81.05;40.60;;;;;;;8.96;88.37;100645.44;8427591;28;20059;-73
2022/11/13 11:27:29;;;;;;;77.13;39.63;;;;;;;8.94;88.13;100636.78;8428565;28;20123;-73
2022/11/13 11:31:36;;;;;;;84.95;39.42;;;;;;;8.86;88.35;100630.84;8418795;28;20097;-73
2022/11/13 11:36:00;;;;;;;83.07;39.33;;;;;;;8.85;88.52;100626.50;8408047;28;20075;-73
2022/11/13 11:40:15;;;;;;;83.20;41.08;;;;;;;8.80;88.57;100629.19;8394647;28;20496;-73
2022/11/13 11:44:26;;;;;;;80.75;40.88;;;;;;;8.54;89.15;100627.38;8430356;28;20051;-74
2022/11/13 11:48:32;;;;;;;85.38;42.08;;;;;;;8.48;90.09;100628.41;8427256;28;20040;-74
2022/11/13 11:52:41;;;;;;;78.97;39.85;;;;;;;8.59;89.98;100623.91;8392255;28;20048;-73
2022/11/13 11:56:44;;;;;;;82.68;40.05;;;;;;;8.67;89.93;100615.38;8408296;28;20055;-74
2022/11/13 12:00:50;;;;;;;80.53;40.42;;;;;;;8.51;89.79;100617.13;8427262;28;20055;-73
2022/11/13 12:05:10;;;;;;;79.60;39.53;;;;;;;8.66;90.08;100597.56;8408360;28;20513;-73
2022/11/13 12:09:30;;;;;;;77.55;38.80;;;;;;;8.81;89.89;100585.00;8423733;28;20469;-74
2022/11/13 12:13:35;;;;;;;84.03;41.13;;;;;;;9.05;88.99;100589.97;8424714;28;20047;-73
2022/11/13 12:17:55;;;;;;;87.05;41.35;;;;;;;9.21;88.47;100594.34;8407811;28;20052;-74
2022/11/13 12:22:19;;;;;;;83.45;42.20;;;;;;;9.19;88.15;100574.94;8428479;28;20048;-74
2022/11/13 12:26:32;;;;;;;88.32;40.53;;;;;;;9.08;88.43;100567.91;8411476;28;20044;-73
2022/11/13 12:30:36;;;;;;;80.53;40.80;;;;;;;9.15;88.59;100554.97;8426316;28;20052;-74
2022/11/13 12:35:03;;;;;;;81.50;42.47;;;;;;;9.27;87.54;100566.34;8424893;28;20056;-73
2022/11/13 12:39:22;;;;;;;84.13;41.00;;;;;;;9.17;87.64;100566.31;8406700;28;20473;-74
2022/11/13 12:43:48;;;;;;;87.97;41.30;;;;;;;9.11;88.03;100556.56;8425268;28;20071;-73
2022/11/13 12:47:51;;;;;;;89.57;43.28;;;;;;;9.22;88.06;100553.66;8423270;28;20440;-74
2022/11/13 12:52:16;;;;;;;84.28;40.78;;;;;;;9.28;87.81;100551.78;8424973;28;20044;-74
2022/11/13 12:56:23;;;;;;;95.32;41.33;;;;;;;9.24;87.77;100550.72;8421594;28;20039;-73
2022/11/13 13:00:27;;;;;;;78.32;39.00;;;;;;;9.01;88.08;100551.16;8403936;28;20062;-74
2022/11/13 13:04:31;;;;;;;80.10;40.70;;;;;;;8.61;88.71;100552.56;8407011;28;20119;-73
2022/11/13 13:09:30;;;;;;;83.28;39.97;;;;;;;8.61;89.03;100547.19;8371180;28;20043;-74
2022/11/13 13:13:43;;;;;;;85.18;41.65;;;;;;;8.64;89.19;100525.13;8288525;28;20081;-74
2022/11/13 13:17:44;;;;;;;95.95;44.83;;;;;;;8.78;89.25;100520.88;8288230;28;20054;-73
2022/11/13 13:21:46;;;;;;;87.10;41.25;;;;;;;8.81;89.45;100525.75;8285666;28;20070;-74
2022/11/13 13:25:47;;;;;;;92.15;41.33;;;;;;;8.95;89.24;100519.88;8271776;28;20532;-74
2022/11/13 13:29:48;;;;;;;84.85;40.20;;;;;;;8.92;89.06;100515.00;8288371;28;20042;-74
2022/11/13 13:34:27;;;;;;;80.45;40.72;;;;;;;8.87;89.11;100513.94;8287882;28;20053;-74
2022/11/13 13:38:34;;;;;;;88.88;42.33;;;;;;;8.85;89.09;100516.06;8191342;28;20051;-73
2022/11/13 13:43:19;;;;;;;90.25;42.28;;;;;;;8.92;88.95;100520.41;8199054;28;20059;-73
2022/11/13 13:47:32;;;;;;;82.68;38.83;;;;;;;8.79;89.07;100527.88;8189451;28;20433;-75
2022/11/13 13:51:38;;;;;;;82.90;39.08;;;;;;;8.62;89.54;100527.25;8191683;28;20422;-74
2022/11/13 13:55:47;;;;;;;84.82;39.85;;;;;;;8.40;90.10;100513.13;8191553;28;20446;-74
2022/11/13 13:59:48;;;;;;;;;;;;;;;8.24;90.39;100519.47;8175872;28;20497;-74
2022/11/13 14:04:02;;;;;;;89.18;39.13;;;;;;;8.18;90.62;100509.72;8194329;28;19934;-74
2022/11/13 14:08:06;;;;;;;89.43;38.83;;;;;;;8.09;90.92;100505.91;8190222;28;20167;-75
2022/11/13 14:12:18;;;;;;;85.30;40.33;;;;;;;8.05;91.06;100501.03;8176978;28;20055;-74
2022/11/13 14:16:19;;;;;;;91.95;40.63;;;;;;;8.01;91.40;100505.31;8300893;28;20052;-73
2022/11/13 14:20:20;;;;;;;88.18;41.05;;;;;;;7.91;91.99;100499.84;8427285;28;20067;-75
2022/11/13 14:24:24;;;;;;;91.97;40.10;;;;;;;7.87;92.38;100497.94;8430641;28;20571;-74
2022/11/13 14:28:28;;;;;;;87.82;40.45;;;;;;;7.89;91.97;100491.22;8427614;28;20058;-74
2022/11/13 14:32:37;;;;;;;87.63;40.40;;;;;;;7.82;92.53;100495.19;8411033;28;20126;-74
2022/11/13 14:36:39;;;;;;;88.95;41.05;;;;;;;7.78;92.54;100492.19;8406348;28;20502;-75
2022/11/13 14:40:46;;;;;;;92.13;41.20;;;;;;;7.72;92.87;100495.91;8406950;28;20055;-74
2022/11/13 14:44:47;;;;;;;89.30;40.53;;;;;;;7.63;93.10;100497.44;8426892;28;20466;-73
2022/11/13 14:48:53;;;;;;;88.97;41.53;;;;;;;7.52;93.30;100490.34;8420557;28;20083;-74
2022/11/13 14:53:06;;;;;;;89.25;39.72;;;;;;;7.41;93.40;100494.00;8415958;28;20392;-74
2022/11/13 14:57:12;;;;;;;89.32;41.35;;;;;;;7.30;93.69;100486.91;8412546;28;20525;-74
2022/11/13 15:01:15;;;;;;;88.75;41.17;;;;;;;7.16;93.97;100481.94;8430148;28;20418;-74
2022/11/13 15:05:16;;;;;;;99.03;43.08;;;;;;;7.04;94.66;100478.59;8390897;28;20551;-74
2022/11/13 15:09:17;;;;;;;99.30;42.70;;;;;;;6.92;95.07;100469.88;8430491;28;20093;-74
2022/11/13 15:13:18;;;;;;;103.75;43.25;;;;;;;6.84;95.43;100467.63;8353545;28;20097;-74
2022/11/13 15:17:21;;;;;;;97.43;43.90;;;;;;;6.77;95.64;100469.66;8436623;28;20052;-74
2022/11/13 15:21:22;;;;;;;100.60;43.38;;;;;;;6.73;95.84;100457.81;8438560;28;20052;-74
2022/11/13 15:25:24;;;;;;;110.18;47.03;;;;;;;6.69;96.32;100464.75;8444405;28;20048;-74
2022/11/13 15:29:25;;;;;;;129.68;50.38;;;;;;;6.65;96.25;100459.06;8439632;28;20056;-74
2022/11/13 15:33:26;;;;;;;108.13;47.13;;;;;;;6.56;96.79;100449.00;8355911;28;20521;-74
2022/11/13 15:37:27;;;;;;;114.45;45.38;;;;;;;6.49;96.98;100453.75;8441182;28;20051;-74
2022/11/13 15:41:29;;;;;;;108.18;44.50;;;;;;;6.46;97.07;100459.63;8413396;28;20048;-74
2022/11/13 15:45:30;;;;;;;103.75;44.08;;;;;;;6.41;97.15;100456.88;8417868;28;20055;-74
2022/11/13 15:49:31;;;;;;;116.28;44.70;;;;;;;6.35;97.54;100448.75;8429847;28;20056;-74
2022/11/13 15:53:32;;;;;;;113.03;45.13;;;;;;;6.32;97.50;100449.25;8431905;28;20059;-73
2022/11/13 15:57:34;;;;;;;116.05;44.80;;;;;;;6.23;97.93;100450.75;8434840;28;20505;-74
2022/11/13 16:01:35;;;;;;;125.80;46.03;;;;;;;6.19;98.19;100448.78;8431973;28;20058;-74
2022/11/13 16:05:37;;;;;;;118.97;48.10;;;;;;;6.18;98.31;100453.38;8393052;28;20036;-73
2022/11/13 16:09:39;;;;;;;126.65;46.92;;;;;;;6.13;98.61;100450.59;8382868;28;20063;-74
2022/11/13 16:13:42;;;;;;;124.32;46.00;;;;;;;6.14;99.09;100451.41;8380095;28;20067;-75
2022/11/13 16:17:47;;;;;;;130.95;49.88;;;;;;;6.13;99.24;100450.59;8414727;28;20058;-73
2022/11/13 16:21:49;;;;;;;126.95;47.67;;;;;;;6.12;99.50;100443.63;8426280;28;20823;-73
2022/11/13 16:25:52;;;;;;;122.50;47.88;;;;;;;6.11;99.28;100436.63;8423314;28;20059;-73
2022/11/13 16:29:53;;;;;;;125.70;48.13;;;;;;;6.06;99.78;100436.56;8423018;28;20044;-74
2022/11/13 16:33:54;;;;;;;125.50;47.65;;;;;;;6.05;99.70;100426.88;8385358;28;20175;-73
2022/11/13 16:37:55;;;;;;;123.55;47.45;;;;;;;6.02;99.97;100432.75;8355966;28;20052;-73
2022/11/13 16:41:56;;;;;;;122.00;47.65;;;;;;;6.01;100.00;100435.66;8386727;28;20047;-74
2022/11/13 16:45:59;;;;;;;136.30;47.42;;;;;;;6.01;100.00;100430.31;8396835;28;20063;-74
2022/11/13 16:50:00;;;;;;;135.68;51.13;;;;;;;6.01;100.00;100424.94;8391823;28;20099;-73
2022/11/13 16:54:02;;;;;;;135.52;49.40;;;;;;;6.02;100.00;100427.38;8401027;28;20048;-73
2022/11/13 16:58:03;;;;;;;141.23;52.90;;;;;;;6.00;100.00;100429.50;8392457;28;20569;-74
2022/11/13 17:02:16;;;;;;;150.60;54.47;;;;;;;5.96;100.00;100417.63;8393128;28;20048;-74
2022/11/13 17:06:22;;;;;;;141.55;54.00;;;;;;;5.94;100.00;100420.56;8389235;28;20044;-74
2022/11/13 17:10:24;;;;;;;140.93;52.08;;;;;;;5.90;100.00;100426.66;8398629;28;20437;-74
2022/11/13 17:14:25;;;;;;;147.57;53.30;;;;;;;5.95;100.00;100426.72;8377253;28;20490;-73
2022/11/13 17:18:27;;;;;;;156.32;56.45;;;;;;;5.96;100.00;100417.63;8392896;28;20503;-74
2022/11/13 17:22:28;;;;;;;144.35;55.20;;;;;;;6.00;100.00;100413.41;8380223;28;20490;-74
2022/11/13 17:26:30;;;;;;;153.10;56.78;;;;;;;6.01;100.00;100420.41;8393025;28;20052;-74
2022/11/13 17:30:31;;;;;;;148.77;57.42;;;;;;;5.98;100.00;100414.69;8377562;28;20059;-74
2022/11/13 17:34:33;;;;;;;151.52;55.47;;;;;;;5.98;100.00;100407.47;8395181;28;20517;-75
2022/11/13 17:38:35;;;;;;;134.23;55.00;;;;;;;5.98;100.00;100410.13;8431087;28;20054;-74
2022/11/13 17:42:36;;;;;;;145.35;55.47;;;;;;;5.97;100.00;100392.44;8380872;28;20525;-73
2022/11/13 17:46:37;;;;;;;144.02;53.92;;;;;;;5.99;100.00;100390.31;8429973;28;20056;-74
2022/11/13 17:50:40;;;;;;;144.43;55.78;;;;;;;6.05;100.00;100389.34;8407585;28;20095;-75
2022/11/13 17:54:41;;;;;;;137.60;52.67;;;;;;;6.11;100.00;100399.06;8371251;28;20040;-74
2022/11/13 17:58:44;;;;;;;145.85;56.58;;;;;;;6.14;100.00;100397.75;8402129;28;20589;-73
2022/11/13 18:02:45;;;;;;;153.63;57.33;;;;;;;6.13;100.00;100396.97;8414674;28;20058;-74
2022/11/13 18:06:48;;;;;;;140.55;55.83;;;;;;;6.17;100.00;100398.09;8431497;28;20143;-74
2022/11/13 18:10:50;;;;;;;143.18;55.75;;;;;;;6.22;100.00;100406.19;8376398;28;20048;-74
2022/11/13 18:14:52;;;;;;;144.65;53.38;;;;;;;6.28;100.00;100393.66;8431576;28;20048;-73
2022/11/13 18:18:55;;;;;;;147.60;55.40;;;;;;;6.28;100.00;100391.78;8427912;28;20073;-74
2022/11/13 18:22:57;;;;;;;153.73;56.53;;;;;;;6.30;100.00;100397.72;8349906;28;20059;-74
2022/11/13 18:26:58;;;;;;;138.68;52.90;;;;;;;6.31;100.00;100399.34;8392908;28;20060;-74
2022/11/13 18:31:05;;;;;;;139.93;55.25;;;;;;;6.30;100.00;100403.06;8391148;28;20553;-73
2022/11/13 18:35:06;;;;;;;149.13;56.03;;;;;;;6.27;100.00;100403.59;8392400;28;20074;-73
2022/11/13 18:39:09;;;;;;;141.68;55.30;;;;;;;6.22;100.00;100390.09;8392908;28;20410;-74
2022/11/13 18:43:10;;;;;;;141.63;53.67;;;;;;;6.21;100.00;100383.13;8392982;28;20060;-74